Terminal Aerodrome Forecast
Issued by NWS

Home | Current Version | Previous Version | Text Only | Print | Product List | Glossary On
Versions: 1 2 3 4 5 6 7 8 9 10 11 12 13 14
000
FTUS42 TJSJ 232329
TAFJMZ
TAF
TJMZ 232329Z 2400/2424 06008KT P6SM SCT050
     FM240200 07005KT P6SM FEW040
     FM241530 25010KT P6SM SCT040
     FM241800 28012KT P6SM SCT250
      AMD NOT SKED=

USA.gov is the U.S. government's official web portal to all federal, state and local government web resources and services.